createdAt,value
2022-11-25T00:01:21.054Z,100990.47
2022-11-25T00:03:48.477Z,100994.81
2022-11-25T00:06:18.000Z,100993.09
2022-11-25T00:08:47.436Z,100986.13
2022-11-25T00:11:14.617Z,100991.34
2022-11-25T00:13:42.558Z,100980.06
2022-11-25T00:16:18.658Z,100984.38
2022-11-25T00:18:51.126Z,100986.94
2022-11-25T00:21:20.772Z,100986.13
2022-11-25T00:23:56.043Z,100983.50
2022-11-25T00:26:24.616Z,100987.81
2022-11-25T00:28:52.187Z,100987.88
2022-11-25T00:31:22.079Z,100980.88
2022-11-25T00:33:49.812Z,100982.59
2022-11-25T00:36:31.666Z,100985.19
2022-11-25T00:39:01.124Z,100986.03
2022-11-25T00:41:47.925Z,100987.75
2022-11-25T00:44:36.910Z,100987.75
2022-11-25T00:47:05.557Z,100985.19
2022-11-25T00:49:33.071Z,100983.44
2022-11-25T00:52:00.256Z,100995.56
2022-11-25T00:54:27.466Z,100995.53
2022-11-25T00:56:54.867Z,100983.41
2022-11-25T00:59:22.057Z,100986.00
2022-11-25T01:01:49.355Z,100986.03
2022-11-25T01:04:16.948Z,100987.75
2022-11-25T01:06:44.127Z,100990.38
2022-11-25T01:09:14.400Z,100982.53
2022-11-25T01:11:41.806Z,100995.56
2022-11-25T01:14:09.140Z,100992.09
2022-11-25T01:16:36.841Z,100992.16
2022-11-25T01:19:04.695Z,100989.53
2022-11-25T01:21:33.357Z,100996.44
2022-11-25T01:24:01.708Z,100986.03
2022-11-25T01:26:29.919Z,100984.34
2022-11-25T01:29:02.709Z,100986.13
2022-11-25T01:31:32.761Z,100987.03
2022-11-25T01:34:02.443Z,100986.16
2022-11-25T01:36:30.107Z,100979.19
2022-11-25T01:38:59.434Z,100973.13
2022-11-25T01:41:28.899Z,100976.63
2022-11-25T01:44:10.023Z,100974.88
2022-11-25T01:46:52.165Z,100973.09
2022-11-25T01:49:35.996Z,100967.03
2022-11-25T01:52:06.699Z,100969.66
2022-11-25T01:54:41.015Z,100968.78
2022-11-25T01:57:16.576Z,100969.66
2022-11-25T01:59:48.381Z,100968.81
2022-11-25T02:02:15.984Z,100970.56
2022-11-25T02:04:44.322Z,100972.28
2022-11-25T02:07:19.903Z,100978.38
2022-11-25T02:09:48.150Z,100976.63
2022-11-25T02:12:16.909Z,100967.09
2022-11-25T02:14:44.880Z,100970.56
2022-11-25T02:17:12.323Z,100965.38
2022-11-25T02:19:57.284Z,100961.94
2022-11-25T02:22:34.480Z,100962.78
2022-11-25T02:25:14.671Z,100972.28
2022-11-25T02:27:44.112Z,100973.13
2022-11-25T02:30:11.330Z,100980.06
2022-11-25T02:32:44.479Z,100978.31
2022-11-25T02:35:36.858Z,100978.28
2022-11-25T02:38:10.143Z,100981.75
2022-11-25T02:40:46.591Z,100982.56
2022-11-25T02:43:14.140Z,100979.13
2022-11-25T02:46:07.136Z,100986.91
2022-11-25T02:51:27.039Z,100978.22
2022-11-25T02:53:54.805Z,100986.94
2022-11-25T02:56:23.928Z,100982.63
2022-11-25T02:58:51.145Z,100986.06
2022-11-25T03:01:19.723Z,100973.00
2022-11-25T03:03:47.026Z,100972.19
2022-11-25T03:06:14.369Z,100974.78
2022-11-25T03:08:41.591Z,100977.34
2022-11-25T03:11:08.814Z,100975.63
2022-11-25T03:13:36.091Z,100970.44
2022-11-25T03:16:03.323Z,100982.56
2022-11-25T03:18:30.570Z,100976.47
2022-11-25T03:20:57.829Z,100977.41
2022-11-25T03:23:25.582Z,100969.56
2022-11-25T03:25:52.839Z,100983.44
2022-11-25T03:28:20.011Z,100988.66
2022-11-25T03:30:47.204Z,100977.34
2022-11-25T03:33:14.414Z,100982.56
2022-11-25T03:35:41.894Z,100994.69
2022-11-25T03:38:09.112Z,100993.81
2022-11-25T03:40:36.289Z,100993.78
2022-11-25T03:43:03.497Z,100992.88
2022-11-25T03:45:30.839Z,100987.66
2022-11-25T03:47:58.089Z,100990.34
2022-11-25T03:50:25.317Z,100992.03
2022-11-25T03:52:52.503Z,100991.16
2022-11-25T03:55:19.822Z,101003.31
2022-11-25T03:57:47.019Z,100987.66
2022-11-25T04:00:14.401Z,100987.63
2022-11-25T04:02:41.726Z,100985.88
2022-11-25T04:05:09.385Z,100985.91
2022-11-25T04:07:36.658Z,100982.44
2022-11-25T04:10:04.212Z,100985.00
2022-11-25T04:12:49.669Z,100978.13
2022-11-25T04:15:17.831Z,100978.94
2022-11-25T04:17:45.080Z,100976.31
2022-11-25T04:20:13.305Z,100974.56
2022-11-25T04:22:40.581Z,100979.84
2022-11-25T04:25:08.645Z,100974.59
2022-11-25T04:27:35.849Z,100983.28
2022-11-25T04:30:03.327Z,100983.22
2022-11-25T04:32:30.516Z,100978.91
2022-11-25T04:34:57.742Z,100981.47
2022-11-25T04:37:24.993Z,100985.84
2022-11-25T04:39:52.270Z,100988.44
2022-11-25T04:42:36.387Z,100998.00
2022-11-25T04:45:22.607Z,100998.84
2022-11-25T04:47:51.081Z,101004.94
2022-11-25T04:50:20.838Z,101004.06
2022-11-25T04:52:48.144Z,100996.22
2022-11-25T04:55:15.411Z,100996.25
2022-11-25T04:57:42.668Z,100996.25
2022-11-25T05:00:10.605Z,100998.00
2022-11-25T05:02:38.104Z,101005.84
2022-11-25T05:05:06.024Z,100994.53
2022-11-25T05:07:33.369Z,100995.38
2022-11-25T05:10:00.633Z,100999.72
2022-11-25T05:12:29.338Z,101004.94
2022-11-25T05:14:56.830Z,100999.72
2022-11-25T05:17:30.321Z,101000.63
2022-11-25T05:19:57.751Z,101002.44
2022-11-25T05:22:27.489Z,101004.16
2022-11-25T05:24:55.103Z,101005.91
2022-11-25T05:27:22.809Z,100998.97
2022-11-25T05:29:54.418Z,100997.25
2022-11-25T05:32:23.159Z,101002.47
2022-11-25T05:34:50.371Z,101000.78
2022-11-25T05:37:22.730Z,100998.19
2022-11-25T05:39:51.526Z,101002.56
2022-11-25T05:42:20.826Z,101000.03
2022-11-25T05:44:48.019Z,101000.91
2022-11-25T05:47:15.217Z,101010.44
2022-11-25T05:49:42.478Z,101002.66
2022-11-25T05:52:09.979Z,100997.47
2022-11-25T05:54:37.386Z,101000.94
2022-11-25T05:57:04.762Z,101000.94
2022-11-25T05:59:31.991Z,100998.38
2022-11-25T06:01:59.281Z,101000.97
2022-11-25T06:04:26.650Z,101004.44
2022-11-25T06:06:54.265Z,101001.84
2022-11-25T06:09:21.473Z,101008.78
2022-11-25T06:11:48.669Z,101013.97
2022-11-25T06:14:17.692Z,101011.38
2022-11-25T06:16:44.867Z,101017.44
2022-11-25T06:19:12.076Z,101014.81
2022-11-25T06:21:39.283Z,101014.81
2022-11-25T06:24:06.805Z,101020.03
2022-11-25T06:26:34.091Z,101031.28
2022-11-25T06:29:01.374Z,101026.97
2022-11-25T06:31:28.614Z,101031.28
2022-11-25T06:33:56.008Z,101033.03
2022-11-25T06:36:23.853Z,101035.63
2022-11-25T06:38:53.165Z,101033.88
2022-11-25T06:41:21.375Z,101037.34
2022-11-25T06:43:48.738Z,101035.63
2022-11-25T06:46:24.139Z,101048.66
2022-11-25T06:48:52.535Z,101050.34
2022-11-25T06:51:19.757Z,101049.50
2022-11-25T06:53:47.167Z,101054.69
2022-11-25T06:56:17.833Z,101058.19
2022-11-25T06:58:46.065Z,101057.31
2022-11-25T07:01:22.457Z,101059.06
2022-11-25T07:03:54.739Z,101053.88
2022-11-25T07:06:21.989Z,101053.88
2022-11-25T07:08:49.708Z,101058.22
2022-11-25T07:11:22.667Z,101053.00
2022-11-25T07:13:52.935Z,101059.94
2022-11-25T07:16:20.521Z,101059.94
2022-11-25T07:18:47.910Z,101063.41
2022-11-25T07:21:17.111Z,101066.84
2022-11-25T07:23:45.593Z,101061.66
2022-11-25T07:26:15.775Z,101069.47
2022-11-25T07:28:43.594Z,101072.09
2022-11-25T07:31:27.126Z,101071.19
2022-11-25T07:34:00.856Z,101065.13
2022-11-25T07:36:28.914Z,101067.72
2022-11-25T07:38:57.224Z,101070.34
2022-11-25T07:41:25.707Z,101069.47
2022-11-25T07:43:55.635Z,101069.47
2022-11-25T07:46:27.430Z,101069.47
2022-11-25T07:48:56.719Z,101070.34
2022-11-25T07:51:31.918Z,101066.00
2022-11-25T07:54:00.592Z,101069.47
2022-11-25T07:56:28.713Z,101070.34
2022-11-25T07:58:56.524Z,101074.63
2022-11-25T08:01:24.136Z,101079.84
2022-11-25T08:03:52.277Z,101082.44
2022-11-25T08:06:22.380Z,101086.75
2022-11-25T08:08:50.116Z,101089.41
2022-11-25T08:11:20.382Z,101090.28
2022-11-25T08:13:48.223Z,101093.75
2022-11-25T08:16:17.577Z,101090.28
2022-11-25T08:18:44.779Z,101092.88
2022-11-25T08:21:13.449Z,101097.22
2022-11-25T08:23:43.357Z,101097.22
2022-11-25T08:26:20.328Z,101100.72
2022-11-25T08:28:47.800Z,101095.50
2022-11-25T08:31:18.871Z,101106.78
2022-11-25T08:33:46.638Z,101105.88
2022-11-25T08:36:14.208Z,101102.44
2022-11-25T08:38:42.106Z,101101.53
2022-11-25T08:41:15.473Z,101102.44
2022-11-25T08:43:43.394Z,101104.13
2022-11-25T08:46:13.490Z,101102.41
2022-11-25T08:48:41.142Z,101090.28
2022-11-25T08:51:11.118Z,101095.47
2022-11-25T08:53:39.683Z,101105.88
2022-11-25T08:56:07.554Z,101094.56
2022-11-25T08:58:35.227Z,101098.00
2022-11-25T09:01:02.960Z,101088.41
2022-11-25T09:03:33.491Z,101090.09
2022-11-25T09:06:01.069Z,101097.94
2022-11-25T09:08:28.783Z,101100.56
2022-11-25T09:10:56.073Z,101109.22
2022-11-25T09:13:23.455Z,101105.72
2022-11-25T09:15:50.908Z,101108.28
2022-11-25T09:18:20.201Z,101103.91
2022-11-25T09:20:47.959Z,101101.38
2022-11-25T09:23:15.254Z,101097.06
2022-11-25T09:25:53.196Z,101090.97
2022-11-25T09:28:24.623Z,101092.69
2022-11-25T09:30:52.653Z,101084.88
2022-11-25T09:33:20.519Z,101090.94
2022-11-25T09:35:48.596Z,101090.88
2022-11-25T09:38:16.170Z,101090.88
2022-11-25T09:40:55.427Z,101089.13
2022-11-25T09:44:00.072Z,101097.78
2022-11-25T09:46:54.186Z,101094.25
2022-11-25T09:49:37.380Z,101092.47
2022-11-25T09:52:16.693Z,101082.84
2022-11-25T09:55:17.457Z,101095.75
2022-11-25T09:57:59.974Z,101095.72
2022-11-25T10:00:43.199Z,101087.84
2022-11-25T10:03:33.801Z,101088.63
2022-11-25T10:06:06.250Z,101094.69
2022-11-25T10:08:40.153Z,101089.41
2022-11-25T10:11:25.070Z,101094.47
2022-11-25T10:13:58.122Z,101098.78
2022-11-25T10:16:36.522Z,101103.06
2022-11-25T10:19:16.438Z,101096.00
2022-11-25T10:21:46.320Z,101093.25
2022-11-25T10:24:15.336Z,101093.22
2022-11-25T10:26:45.523Z,101100.00
2022-11-25T10:29:24.658Z,101101.53
2022-11-25T10:31:56.828Z,101097.09
2022-11-25T10:34:35.700Z,101090.06
2022-11-25T10:37:06.964Z,101084.88
2022-11-25T10:39:35.546Z,101089.88
2022-11-25T10:42:08.396Z,101097.63
2022-11-25T10:44:40.338Z,101093.91
2022-11-25T10:47:32.702Z,101091.22
2022-11-25T10:50:51.880Z,101091.81
2022-11-25T10:53:23.097Z,101091.91
2022-11-25T10:56:16.670Z,101087.44
2022-11-25T10:58:44.682Z,101075.22
2022-11-25T11:01:22.832Z,101080.25
2022-11-25T11:04:06.102Z,101084.41
2022-11-25T11:06:38.295Z,101082.44
2022-11-25T11:09:05.564Z,101083.09
2022-11-25T11:11:32.837Z,101069.78
2022-11-25T11:14:14.535Z,101073.72
2022-11-25T11:16:45.481Z,101077.94
2022-11-25T11:19:26.569Z,101080.56
2022-11-25T11:21:55.788Z,101075.38
2022-11-25T11:24:27.844Z,101073.38
2022-11-25T11:27:23.026Z,101081.25
2022-11-25T11:30:14.137Z,101079.41
2022-11-25T11:32:56.671Z,101075.31
2022-11-25T11:35:52.851Z,101074.47
2022-11-25T11:38:48.015Z,101067.28
2022-11-25T11:41:34.410Z,101063.84
2022-11-25T11:44:06.094Z,101063.06
2022-11-25T11:47:05.168Z,101056.97
2022-11-25T11:49:45.001Z,101055.44
2022-11-25T11:52:30.549Z,101052.06
2022-11-25T11:55:25.071Z,101043.34
2022-11-25T11:58:23.346Z,101050.34
2022-11-25T12:00:57.994Z,101054.81
2022-11-25T12:03:26.340Z,101058.38
2022-11-25T12:05:57.404Z,101060.09
2022-11-25T12:08:49.536Z,101060.84
2022-11-25T12:11:24.974Z,101062.59
2022-11-25T12:14:03.301Z,101059.91
2022-11-25T12:17:02.658Z,101059.81
2022-11-25T12:19:44.397Z,101069.34
2022-11-25T12:22:32.385Z,101056.78
2022-11-25T12:25:06.417Z,101054.34
2022-11-25T12:27:45.050Z,101048.13
2022-11-25T12:30:23.190Z,101048.19
2022-11-25T12:33:21.492Z,101055.38
2022-11-25T12:36:14.089Z,101060.69
2022-11-25T12:38:57.359Z,101062.38
2022-11-25T12:41:31.084Z,101060.38
2022-11-25T12:44:25.288Z,101062.97
2022-11-25T12:46:54.841Z,101057.72
2022-11-25T12:49:33.464Z,101062.09
2022-11-25T12:52:38.304Z,101065.22
2022-11-25T12:55:16.011Z,101067.94
2022-11-25T12:57:49.056Z,101062.84
2022-11-25T13:00:42.279Z,101061.97
2022-11-25T13:03:29.919Z,101061.22
2022-11-25T13:06:28.966Z,101058.44
2022-11-25T13:09:31.829Z,101064.72
2022-11-25T13:12:28.912Z,101069.09
2022-11-25T13:15:18.345Z,101071.56
2022-11-25T13:17:47.416Z,101076.56
2022-11-25T13:20:29.857Z,101073.22
2022-11-25T13:23:07.808Z,101078.41
2022-11-25T13:25:36.777Z,101077.41
2022-11-25T13:28:11.086Z,101082.72
2022-11-25T13:30:39.993Z,101084.50
2022-11-25T13:33:12.828Z,101082.78
2022-11-25T13:35:47.212Z,101091.63
2022-11-25T13:38:37.236Z,101095.00
2022-11-25T13:41:10.486Z,101088.03
2022-11-25T13:43:52.468Z,101088.03
2022-11-25T13:46:37.966Z,101087.97
2022-11-25T13:49:07.456Z,101084.44
2022-11-25T13:51:34.733Z,101101.94
2022-11-25T13:54:05.229Z,101093.22
2022-11-25T13:56:37.202Z,101100.75
2022-11-25T13:59:17.102Z,101099.75
2022-11-25T14:01:47.490Z,101099.94
2022-11-25T14:04:16.580Z,101103.53
2022-11-25T14:07:01.862Z,101110.63
2022-11-25T14:09:42.782Z,101107.06
2022-11-25T14:12:32.068Z,101124.56
2022-11-25T14:15:01.189Z,101125.44
2022-11-25T14:17:47.883Z,101123.03
2022-11-25T14:20:45.980Z,101132.91
2022-11-25T14:23:22.620Z,101136.53
2022-11-25T14:26:04.061Z,101136.69
2022-11-25T14:28:47.232Z,101129.69
2022-11-25T14:31:23.356Z,101129.59
2022-11-25T14:34:00.295Z,101138.41
2022-11-25T14:36:42.269Z,101138.53
2022-11-25T14:39:23.151Z,101145.53
2022-11-25T14:42:12.360Z,101135.03
2022-11-25T14:44:49.529Z,101140.47
2022-11-25T14:47:22.939Z,101140.59
2022-11-25T14:50:18.959Z,101140.34
2022-11-25T14:52:47.678Z,101150.91
2022-11-25T14:55:25.958Z,101145.59
2022-11-25T14:57:53.599Z,101150.78
2022-11-25T15:00:21.153Z,101153.41
2022-11-25T15:02:57.817Z,101161.44
2022-11-25T15:05:31.866Z,101157.94
2022-11-25T15:08:24.471Z,101159.69
2022-11-25T15:10:52.504Z,101155.31
2022-11-25T15:13:39.236Z,101158.97
2022-11-25T15:16:24.912Z,101167.69
2022-11-25T15:18:55.640Z,101168.59
2022-11-25T15:22:20.774Z,101162.25
2022-11-25T15:24:50.199Z,101169.47
2022-11-25T15:27:28.754Z,101173.81
2022-11-25T15:29:57.545Z,101174.50
2022-11-25T15:32:29.176Z,101173.59
2022-11-25T15:34:58.752Z,101175.31
2022-11-25T15:37:26.411Z,101174.38
2022-11-25T15:40:31.341Z,101182.13
2022-11-25T15:42:59.794Z,101178.69
2022-11-25T15:45:38.404Z,101179.50
2022-11-25T15:48:08.954Z,101183.88
2022-11-25T15:50:36.212Z,101182.13
2022-11-25T15:53:05.029Z,101178.59
2022-11-25T15:55:50.844Z,101174.41
2022-11-25T15:58:23.130Z,101182.19
2022-11-25T16:01:04.899Z,101181.22
2022-11-25T16:03:32.913Z,101184.00
2022-11-25T16:06:01.442Z,101177.03
2022-11-25T16:08:32.143Z,101176.34
2022-11-25T16:11:16.118Z,101181.41
2022-11-25T16:13:43.780Z,101182.22
2022-11-25T16:16:28.806Z,101184.03
2022-11-25T16:19:38.013Z,101182.19
2022-11-25T16:22:06.008Z,101179.72
2022-11-25T16:24:46.215Z,101190.19
2022-11-25T16:27:20.325Z,101195.38
2022-11-25T16:29:55.069Z,101201.38
2022-11-25T16:32:30.432Z,101204.91
2022-11-25T16:35:16.515Z,101199.63
2022-11-25T16:37:48.533Z,101205.69
2022-11-25T16:40:17.622Z,101202.25
2022-11-25T16:42:49.646Z,101207.47
2022-11-25T16:45:28.498Z,101214.44
2022-11-25T16:47:56.156Z,101209.25
2022-11-25T16:50:23.759Z,101205.78
2022-11-25T16:52:51.165Z,101210.16
2022-11-25T16:55:18.521Z,101206.72
2022-11-25T16:57:45.923Z,101210.16
2022-11-25T17:00:16.809Z,101214.50
2022-11-25T17:02:45.113Z,101213.69
2022-11-25T17:05:25.341Z,101217.22
2022-11-25T17:07:52.736Z,101219.06
2022-11-25T17:10:21.501Z,101213.78
2022-11-25T17:12:51.835Z,101217.41
2022-11-25T17:15:35.997Z,101215.66
2022-11-25T17:18:04.904Z,101225.31
2022-11-25T17:20:32.157Z,101225.25
2022-11-25T17:23:00.165Z,101228.69
2022-11-25T17:25:32.314Z,101226.97
2022-11-25T17:28:02.516Z,101230.50
2022-11-25T17:30:30.086Z,101231.41
2022-11-25T17:33:10.344Z,101236.75
2022-11-25T17:35:37.548Z,101238.38
2022-11-25T17:38:28.832Z,101239.31
2022-11-25T17:40:59.503Z,101243.69
2022-11-25T17:43:31.691Z,101241.91
2022-11-25T17:46:01.653Z,101243.63
2022-11-25T17:48:28.997Z,101249.72
2022-11-25T17:50:56.352Z,101248.81
2022-11-25T17:53:23.691Z,101250.59
2022-11-25T17:55:52.480Z,101254.06
2022-11-25T17:58:20.671Z,101253.19
2022-11-25T18:00:49.011Z,101255.81
2022-11-25T18:03:17.426Z,101263.66
2022-11-25T18:05:46.196Z,101259.25
2022-11-25T18:08:13.417Z,101261.00
2022-11-25T18:10:41.117Z,101273.25
2022-11-25T18:13:11.179Z,101267.16
2022-11-25T18:15:39.425Z,101268.91
2022-11-25T18:18:22.022Z,101276.72
2022-11-25T18:20:49.787Z,101280.19
2022-11-25T18:23:20.444Z,101271.44
2022-11-25T18:25:47.696Z,101281.03
2022-11-25T18:28:20.172Z,101281.03
2022-11-25T18:30:48.054Z,101284.59
2022-11-25T18:33:17.242Z,101283.75
2022-11-25T18:35:45.940Z,101280.22
2022-11-25T18:38:13.672Z,101286.31
2022-11-25T18:40:42.516Z,101287.22
2022-11-25T18:43:18.751Z,101294.19
2022-11-25T18:45:46.744Z,101302.94
2022-11-25T18:48:19.751Z,101300.28
2022-11-25T18:50:47.733Z,101298.53
2022-11-25T18:53:15.436Z,101300.25
2022-11-25T18:55:42.783Z,101296.81
2022-11-25T18:58:17.023Z,101302.94
2022-11-25T19:00:46.706Z,101312.50
2022-11-25T19:03:25.965Z,101318.59
2022-11-25T19:05:58.631Z,101318.59
2022-11-25T19:08:25.904Z,101310.84
2022-11-25T19:10:53.267Z,101310.00
2022-11-25T19:13:33.223Z,101322.19
2022-11-25T19:16:08.621Z,101324.81
2022-11-25T19:18:35.955Z,101331.03
2022-11-25T19:21:03.427Z,101331.88
2022-11-25T19:23:30.788Z,101332.69
2022-11-25T19:26:07.945Z,101334.41
2022-11-25T19:28:35.513Z,101336.97
2022-11-25T19:31:04.612Z,101337.03
2022-11-25T19:33:36.031Z,101339.56
2022-11-25T19:36:04.134Z,101352.75
2022-11-25T19:38:32.872Z,101351.91
2022-11-25T19:41:00.284Z,101355.41
2022-11-25T19:43:28.183Z,101358.84
2022-11-25T19:45:56.435Z,101357.06
2022-11-25T19:48:29.523Z,101364.88
2022-11-25T19:50:59.663Z,101369.25
2022-11-25T19:53:33.810Z,101369.25
2022-11-25T19:56:04.558Z,101376.19
2022-11-25T19:58:32.271Z,101388.38
2022-11-25T20:01:02.654Z,101384.00
2022-11-25T20:03:30.984Z,101384.00
2022-11-25T20:05:58.539Z,101393.63
2022-11-25T20:08:27.888Z,101391.06
2022-11-25T20:10:55.368Z,101398.88
2022-11-25T20:13:26.236Z,101395.47
2022-11-25T20:15:55.591Z,101406.81
2022-11-25T20:18:24.319Z,101412.84
2022-11-25T20:21:00.117Z,101411.97
2022-11-25T20:23:38.582Z,101414.56
2022-11-25T20:26:12.390Z,101412.81
2022-11-25T20:28:39.722Z,101424.13
2022-11-25T20:31:08.522Z,101425.91
2022-11-25T20:33:35.849Z,101425.00
2022-11-25T20:36:06.452Z,101433.69
2022-11-25T20:38:35.268Z,101431.94
2022-11-25T20:41:04.291Z,101432.81
2022-11-25T20:43:37.088Z,101445.06
2022-11-25T20:46:05.545Z,101442.44
2022-11-25T20:48:35.056Z,101449.44
2022-11-25T20:51:04.070Z,101454.66
2022-11-25T20:53:32.435Z,101454.63
2022-11-25T20:56:00.398Z,101461.69
2022-11-25T20:58:29.775Z,101450.34
2022-11-25T21:00:58.263Z,101446.81
2022-11-25T21:03:26.185Z,101461.59
2022-11-25T21:05:55.083Z,101458.91
2022-11-25T21:08:24.519Z,101461.53
2022-11-25T21:10:52.785Z,101460.66
2022-11-25T21:13:30.695Z,101469.41
2022-11-25T21:15:58.377Z,101465.06
2022-11-25T21:18:26.099Z,101466.81
2022-11-25T21:20:55.053Z,101461.53
2022-11-25T21:23:25.108Z,101473.78
2022-11-25T21:25:52.480Z,101475.53
2022-11-25T21:28:24.950Z,101475.50
2022-11-25T21:30:52.336Z,101482.44
2022-11-25T21:33:19.664Z,101481.63
2022-11-25T21:35:48.711Z,101478.09
2022-11-25T21:38:18.253Z,101477.19
2022-11-25T21:40:50.723Z,101478.94
2022-11-25T21:43:22.332Z,101477.19
2022-11-25T21:45:52.525Z,101485.06
2022-11-25T21:48:25.069Z,101490.25
2022-11-25T21:50:52.894Z,101486.81
2022-11-25T21:53:20.564Z,101493.75
2022-11-25T21:55:48.562Z,101492.84
2022-11-25T21:58:18.584Z,101496.34
2022-11-25T22:01:03.245Z,101493.84
2022-11-25T22:03:31.911Z,101494.66
2022-11-25T22:06:00.234Z,101505.09
2022-11-25T22:08:27.503Z,101512.06
2022-11-25T22:10:56.102Z,101520.78
2022-11-25T22:13:27.864Z,101521.72
2022-11-25T22:15:58.177Z,101523.47
2022-11-25T22:18:35.440Z,101528.63
2022-11-25T22:21:03.553Z,101534.78
2022-11-25T22:23:30.991Z,101538.31
2022-11-25T22:25:58.315Z,101541.75
2022-11-25T22:28:27.876Z,101542.63
2022-11-25T22:31:08.529Z,101544.34
2022-11-25T22:33:38.069Z,101548.72
2022-11-25T22:36:05.807Z,101552.25
2022-11-25T22:38:33.175Z,101556.66
2022-11-25T22:41:05.347Z,101561.91
2022-11-25T22:43:38.958Z,101556.63
2022-11-25T22:46:06.890Z,101561.03
2022-11-25T22:48:38.210Z,101559.34
2022-11-25T22:51:27.148Z,101555.91
2022-11-25T22:53:54.399Z,101569.00
2022-11-25T22:56:21.717Z,101571.63
2022-11-25T22:58:49.549Z,101575.19
2022-11-25T23:01:17.473Z,101570.72
2022-11-25T23:03:45.242Z,101578.56
2022-11-25T23:06:13.242Z,101581.09
2022-11-25T23:08:40.937Z,101585.56
2022-11-25T23:11:13.282Z,101589.97
2022-11-25T23:13:40.572Z,101590.91
2022-11-25T23:16:09.810Z,101596.16
2022-11-25T23:18:46.287Z,101596.97
2022-11-25T23:21:20.044Z,101600.47
2022-11-25T23:23:47.309Z,101602.19
2022-11-25T23:26:15.271Z,101604.81
2022-11-25T23:28:52.356Z,101608.28
2022-11-25T23:31:19.735Z,101608.34
2022-11-25T23:33:51.951Z,101615.19
2022-11-25T23:36:28.835Z,101610.03
2022-11-25T23:38:58.809Z,101614.38
2022-11-25T23:41:32.057Z,101609.06
2022-11-25T23:44:23.699Z,101609.97
2022-11-25T23:46:52.789Z,101613.44
2022-11-25T23:49:26.342Z,101622.16
2022-11-25T23:51:56.433Z,101622.97
2022-11-25T23:54:30.538Z,101605.44
2022-11-25T23:56:58.233Z,101613.44
2022-11-25T23:59:29.708Z,101623.09
